Majesty of the Seas — C6FZ8 — position and weather

sailwx.info

Track history (hours):
 
Tides and Currents Weather Stations Pressure Air Temp Water Temp Dewpoint Dewpoint Depression Visibility Wind Speed Wind Dir Waves Ship Positions

Majesty of the Seas (Bahamas)

Last reported at 2017-May-22 10:30 UTC. Time now 2017-May-25 03:01 UTC.
Position N 28°25' W 080°37'.

Length 268 m; draft 7.8 m.

Type: Passenger vessel. MMSI: 311734000.

Date/timePositionNaut miles runAvg speedWind from/ knotsBaromVisibWave heightAir tempDewpointWater temp
2017-May-22 10:30N 28°25' W 080°37'5 8.0
2017-May-22 09:51N 28°22' W 080°31'3 9.6
2017-May-22 09:30N 28°20' W 080°28'10114.8
2017-May-22 02:43N 26°54' W 079°28'419.0
2017-May-22 02:30N 26°51' W 079°26'1118.5
2017-May-22 01:54N 26°41' W 079°20'718.0
2017-May-22 01:31N 26°35' W 079°16'917.3
2017-May-22 01:00N 26°28' W 079°10'917.2
2017-May-22 00:31N 26°23' W 079°03'917.0
2017-May-22 00:00N 26°18' W 078°55'816.7
2017-May-21 23:31N 26°13' W 078°47'816.9
2017-May-21 23:01N 26°10' W 078°39'1117.4
2017-May-21 22:21N 26°05' W 078°27'616.3
2017-May-21 22:00N 26°03' W 078°21'1316.1
2017-May-21 21:11N 25°58' W 078°08'  
2017-May-17 05:00N 25°24' W 077°12'45 9.0 080 / 181016.010.8 25.022.027.0
2017-May-17 00:00N 25°48' W 077°54'96 5.1 090 / 221015.010.8 25.023.527.5
2017-May-16 05:00N 26°54' W 079°12'32 1.1 120 / 121015.010.8 25.022.027.0
2017-May-15 00:21N 26°23' W 079°04'716.3
2017-May-14 23:57N 26°19' W 078°58'115 4.9
2017-May-14 00:32N 25°05' W 077°21'0 0.0
2017-May-14 00:20N 25°05' W 077°21'19 1.9
2017-May-13 14:00N 25°24' W 077°24'12215.4 200 / 181014.010.8 25.022.026.0
2017-May-13 06:04N 26°42' W 079°08'116.6
2017-May-13 06:00N 26°43' W 079°09'816.3
2017-May-13 05:30N 26°50' W 079°13'815.7
2017-May-13 05:00N 26°58' W 079°15'113 6.9
2017-May-12 12:47N 28°25' W 080°37'0 0.0
2017-May-12 11:44N 28°25' W 080°37'0 0.3
2017-May-12 10:38N 28°25' W 080°36'  
Track history (hours):
 
Tides and Currents Weather Stations Pressure Air Temp Water Temp Dewpoint Dewpoint Depression Visibility Wind Speed Wind Dir Waves Ship Positions

Majesty of the Seas (Bahamas)

Last reported at 2017-May-22 10:30 UTC. Time now 2017-May-25 03:01 UTC.
Position N 28°25' W 080°37'.

Length 268 m; draft 7.8 m.

Type: Passenger vessel. MMSI: 311734000.

Date/timePositionNaut miles runAvg speedWind from/ knotsBaromVisibWave heightAir tempDewpointWater temp
2017-May-22 10:30N 28°25' W 080°37'5 8.0
2017-May-22 09:51N 28°22' W 080°31'3 9.6
2017-May-22 09:30N 28°20' W 080°28'10114.8
2017-May-22 02:43N 26°54' W 079°28'419.0
2017-May-22 02:30N 26°51' W 079°26'1118.5
2017-May-22 01:54N 26°41' W 079°20'718.0
2017-May-22 01:31N 26°35' W 079°16'917.3
2017-May-22 01:00N 26°28' W 079°10'917.2
2017-May-22 00:31N 26°23' W 079°03'917.0
2017-May-22 00:00N 26°18' W 078°55'816.7
2017-May-21 23:31N 26°13' W 078°47'816.9
2017-May-21 23:01N 26°10' W 078°39'1117.4
2017-May-21 22:21N 26°05' W 078°27'616.3
2017-May-21 22:00N 26°03' W 078°21'1316.1
2017-May-21 21:11N 25°58' W 078°08'  
2017-May-17 05:00N 25°24' W 077°12'45 9.0 080 / 181016.010.8 25.022.027.0
2017-May-17 00:00N 25°48' W 077°54'96 5.1 090 / 221015.010.8 25.023.527.5
2017-May-16 05:00N 26°54' W 079°12'32 1.1 120 / 121015.010.8 25.022.027.0
2017-May-15 00:21N 26°23' W 079°04'716.3
2017-May-14 23:57N 26°19' W 078°58'115 4.9
2017-May-14 00:32N 25°05' W 077°21'0 0.0
2017-May-14 00:20N 25°05' W 077°21'19 1.9
2017-May-13 14:00N 25°24' W 077°24'12215.4 200 / 181014.010.8 25.022.026.0
2017-May-13 06:04N 26°42' W 079°08'116.6
2017-May-13 06:00N 26°43' W 079°09'816.3
2017-May-13 05:30N 26°50' W 079°13'815.7
2017-May-13 05:00N 26°58' W 079°15'113 6.9
2017-May-12 12:47N 28°25' W 080°37'0 0.0
2017-May-12 11:44N 28°25' W 080°37'0 0.3
2017-May-12 10:38N 28°25' W 080°36'  

Dump ship's entire track history